Time;durP1;ratioP1;P1;durP2;ratioP2;P2;SDS_P1;SDS_P2;PMS_P1;PMS_P2;Temp;Humidity;BMP_temperature;BMP_pressure;BME280_temperature;BME280_humidity;BME280_pressure;Samples;Min_cycle;Max_cycle;Signal;HPM_P1;HPM_P2
2021/10/28 00:14:19;;;;;;;6.55;5.68;;;;;;;11.32;100.00;101496.84;5028535;28;20531;-60
2021/10/28 00:16:48;;;;;;;5.25;4.75;;;;;;;11.22;100.00;101498.22;5028110;28;20120;-59
2021/10/28 00:19:13;;;;;;;5.80;5.28;;;;;;;10.98;100.00;101507.56;5028471;28;20076;-60
2021/10/28 00:21:39;;;;;;;6.22;5.63;;;;;;;10.79;100.00;101506.03;5026553;28;20358;-59
2021/10/28 00:24:10;;;;;;;7.32;6.28;;;;;;;11.00;100.00;101499.94;5028146;28;20055;-60
2021/10/28 00:26:42;;;;;;;6.75;6.10;;;;;;;10.83;100.00;101502.75;5028468;28;20030;-61
2021/10/28 00:29:09;;;;;;;7.47;5.97;;;;;;;10.98;100.00;101499.03;5028403;28;20033;-60
2021/10/28 00:31:39;;;;;;;7.03;6.30;;;;;;;10.95;100.00;101503.22;5028029;28;20041;-59
2021/10/28 00:34:07;;;;;;;7.35;6.65;;;;;;;10.74;100.00;101502.41;5027989;28;20047;-61
2021/10/28 00:36:34;;;;;;;8.40;7.60;;;;;;;10.72;100.00;101504.03;5028326;28;20120;-61
2021/10/28 00:39:00;;;;;;;8.82;7.00;;;;;;;10.76;100.00;101505.03;5027904;28;20037;-60
2021/10/28 00:41:26;;;;;;;8.13;7.32;;;;;;;10.80;100.00;101506.88;5028250;28;20033;-59
2021/10/28 00:43:54;;;;;;;9.68;8.68;;;;;;;10.77;100.00;101507.66;5028002;28;20048;-61
2021/10/28 00:46:23;;;;;;;10.35;8.93;;;;;;;10.37;100.00;101502.69;5027904;28;20060;-60
2021/10/28 00:48:50;;;;;;;10.55;9.45;;;;;;;10.49;100.00;101507.38;5027831;28;20044;-61
2021/10/28 00:51:19;;;;;;;11.70;8.88;;;;;;;10.17;100.00;101504.41;5027518;28;20033;-60
2021/10/28 00:53:46;;;;;;;10.43;8.25;;;;;;;10.43;100.00;101501.22;5027746;28;20034;-60
2021/10/28 00:56:11;;;;;;;9.88;8.88;;;;;;;10.67;100.00;101510.66;5027348;28;20033;-61
2021/10/28 00:58:37;;;;;;;9.95;8.85;;;;;;;10.48;100.00;101497.97;5027781;28;20555;-61
2021/10/28 01:01:05;;;;;;;12.05;10.57;;;;;;;10.57;100.00;101500.88;5027881;28;20374;-60
2021/10/28 01:03:33;;;;;;;10.63;9.63;;;;;;;10.43;100.00;101496.09;5026686;28;20057;-61
2021/10/28 01:05:59;;;;;;;12.15;10.13;;;;;;;10.20;100.00;101495.16;5026000;28;20044;-60
2021/10/28 01:08:26;;;;;;;14.45;10.98;;;;;;;10.28;100.00;101498.06;5027127;28;20056;-60
2021/10/28 01:10:52;;;;;;;11.70;10.02;;;;;;;10.52;100.00;101492.16;5027101;28;20041;-60
2021/10/28 01:13:20;;;;;;;15.90;10.68;;;;;;;10.31;100.00;101495.63;5027441;28;20033;-61
2021/10/28 01:15:47;;;;;;;15.45;10.63;;;;;;;10.14;100.00;101494.91;5025876;28;20034;-61
2021/10/28 01:18:14;;;;;;;11.88;10.60;;;;;;;10.25;100.00;101495.38;5027636;28;20033;-61
2021/10/28 01:20:43;;;;;;;12.63;10.77;;;;;;;10.39;100.00;101494.22;5027603;28;20047;-60
2021/10/28 01:23:11;;;;;;;15.00;11.55;;;;;;;10.30;100.00;101478.50;5027159;28;20517;-61
2021/10/28 01:25:38;;;;;;;12.40;11.10;;;;;;;10.08;100.00;101489.56;5027098;28;20037;-61
2021/10/28 01:28:06;;;;;;;13.82;11.75;;;;;;;10.20;100.00;101482.34;5027455;28;20037;-58
2021/10/28 01:30:32;;;;;;;13.27;11.20;;;;;;;9.64;100.00;101477.50;5027095;28;20038;-60
2021/10/28 01:32:57;;;;;;;14.02;11.65;;;;;;;9.35;100.00;101486.47;5026874;28;20374;-61
2021/10/28 01:35:23;;;;;;;14.02;12.18;;;;;;;9.66;100.00;101481.88;5026891;28;20091;-61
2021/10/28 01:37:50;;;;;;;14.25;11.32;;;;;;;9.27;100.00;101485.25;5027021;28;20460;-61
2021/10/28 01:40:16;;;;;;;13.25;11.60;;;;;;;9.82;100.00;101485.94;5026995;28;20060;-60
2021/10/28 01:42:50;;;;;;;14.80;11.68;;;;;;;10.03;100.00;101485.94;5027484;28;20034;-61
2021/10/28 01:45:18;;;;;;;13.50;11.57;;;;;;;10.10;100.00;101487.94;5026697;28;20420;-60
2021/10/28 01:47:44;;;;;;;15.93;12.02;;;;;;;9.80;100.00;101482.44;5027373;28;20033;-60
2021/10/28 01:50:11;;;;;;;15.57;13.07;;;;;;;9.57;100.00;101484.03;5027306;28;20048;-58
2021/10/28 01:52:39;;;;;;;14.60;12.45;;;;;;;9.75;100.00;101475.38;5026619;28;20686;-60
2021/10/28 01:55:10;;;;;;;15.45;12.95;;;;;;;9.84;100.00;101481.72;5006603;28;20092;-59
2021/10/28 01:57:35;;;;;;;15.10;11.75;;;;;;;9.74;100.00;101474.50;5007337;28;20435;-60
2021/10/28 02:00:03;;;;;;;16.27;12.35;;;;;;;9.28;100.00;101485.31;5007225;28;20045;-61
2021/10/28 02:02:29;;;;;;;14.82;12.45;;;;;;;8.95;100.00;101481.28;5006606;28;20111;-61
2021/10/28 02:04:55;;;;;;;14.40;11.05;;;;;;;8.91;100.00;101477.72;5006447;28;20125;-58
2021/10/28 02:07:20;;;;;;;15.25;11.63;;;;;;;9.51;100.00;101477.78;5006679;28;20060;-60
2021/10/28 02:09:46;;;;;;;13.57;11.63;;;;;;;9.17;100.00;101472.09;5006639;28;20365;-61
2021/10/28 02:12:11;;;;;;;13.38;11.63;;;;;;;9.03;100.00;101480.81;5006989;28;20034;-61
2021/10/28 02:14:37;;;;;;;14.32;11.05;;;;;;;9.01;100.00;101479.00;5006456;28;20048;-61
2021/10/28 02:17:03;;;;;;;15.85;11.82;;;;;;;8.47;100.00;101475.69;5006507;28;20061;-59
2021/10/28 02:19:28;;;;;;;13.48;11.40;;;;;;;8.90;100.00;101479.41;5006502;28;20050;-61
2021/10/28 02:21:54;;;;;;;13.50;11.18;;;;;;;8.71;100.00;101479.38;5006107;28;20050;-61
2021/10/28 02:24:20;;;;;;;14.23;12.02;;;;;;;9.34;100.00;101484.75;5005334;28;20397;-61
2021/10/28 02:26:46;;;;;;;12.77;11.27;;;;;;;8.87;100.00;101479.28;5005619;28;20038;-60
2021/10/28 02:29:12;;;;;;;13.55;10.45;;;;;;;8.53;100.00;101479.41;5006962;28;20046;-60
2021/10/28 02:31:43;;;;;;;13.20;11.02;;;;;;;8.32;100.00;101489.44;5006300;28;20026;-61
2021/10/28 02:34:08;;;;;;;14.35;11.38;;;;;;;8.36;100.00;101480.25;5006151;28;20061;-61
2021/10/28 02:36:34;;;;;;;12.55;10.25;;;;;;;8.23;100.00;101477.91;5006063;28;20065;-60
2021/10/28 02:38:59;;;;;;;11.32;9.73;;;;;;;8.19;100.00;101479.47;5005875;28;20034;-60
2021/10/28 02:41:25;;;;;;;13.60;11.35;;;;;;;8.79;100.00;101480.59;5006013;28;20065;-61
2021/10/28 02:43:52;;;;;;;14.07;11.52;;;;;;;8.36;100.00;101483.69;5004413;28;20042;-62
2021/10/28 02:46:18;;;;;;;13.55;10.93;;;;;;;8.24;100.00;101477.13;5005635;28;20038;-62
2021/10/28 02:48:44;;;;;;;13.32;10.48;;;;;;;8.38;100.00;101482.09;5006158;28;20401;-60
2021/10/28 02:51:09;;;;;;;11.65;10.45;;;;;;;8.64;100.00;101478.22;5006109;28;20557;-61
2021/10/28 02:53:35;;;;;;;11.77;10.57;;;;;;;9.19;100.00;101482.38;5005511;28;20182;-58
2021/10/28 02:56:00;;;;;;;13.40;10.68;;;;;;;8.73;100.00;101485.41;5005282;28;20068;-61
2021/10/28 02:58:26;;;;;;;14.90;11.60;;;;;;;8.51;100.00;101485.25;5004376;28;20141;-61
2021/10/28 03:00:52;;;;;;;12.75;10.60;;;;;;;8.37;100.00;101485.47;5005719;28;20140;-60
2021/10/28 03:03:17;;;;;;;12.93;10.93;;;;;;;8.64;100.00;101479.88;5005178;28;20857;-59
2021/10/28 03:05:43;;;;;;;15.15;11.55;;;;;;;8.68;100.00;101481.78;5005869;28;20505;-60
2021/10/28 03:08:08;;;;;;;15.20;11.90;;;;;;;8.34;100.00;101479.31;5005733;28;20505;-59
2021/10/28 03:10:34;;;;;;;14.00;11.52;;;;;;;8.27;100.00;101482.34;5005710;28;20057;-61
2021/10/28 03:13:00;;;;;;;12.13;10.75;;;;;;;8.18;100.00;101485.38;5004713;28;20829;-62
2021/10/28 03:15:30;;;;;;;14.07;12.57;;;;;;;8.77;100.00;101483.88;5005207;28;20029;-60
2021/10/28 03:26:15;;;;;;;15.43;12.18;;;;;;;8.47;100.00;101483.34;5004989;28;20100;-61
2021/10/28 03:28:41;;;;;;;15.93;11.65;;;;;;;8.58;100.00;101487.25;5005273;28;20513;-60
2021/10/28 03:31:07;;;;;;;17.20;11.13;;;;;;;8.67;100.00;101485.13;5005124;28;20030;-58
2021/10/28 03:33:34;;;;;;;17.95;13.85;;;;;;;8.15;100.00;101478.44;5004920;28;20033;-58
2021/10/28 03:36:00;;;;;;;16.33;12.63;;;;;;;8.03;100.00;101480.38;5004923;28;20121;-60
2021/10/28 03:38:28;;;;;;;17.60;11.82;;;;;;;7.90;100.00;101493.31;5004714;28;20037;-61
2021/10/28 04:31:29;;;;;;;18.30;13.50;;;;;;;7.51;100.00;101470.16;5024578;28;20072;-59
2021/10/28 04:33:58;;;;;;;16.38;12.32;;;;;;;7.70;100.00;101471.09;5023964;28;20037;-58
2021/10/28 04:36:28;;;;;;;19.35;12.55;;;;;;;7.49;100.00;101479.41;5024349;28;20037;-59
2021/10/28 04:38:54;;;;;;;18.67;11.95;;;;;;;7.66;100.00;101476.00;5024199;28;20497;-57
2021/10/28 04:41:19;;;;;;;18.63;13.13;;;;;;;7.20;100.00;101477.91;5024042;28;20041;-53
2021/10/28 04:43:45;;;;;;;18.52;12.18;;;;;;;7.17;100.00;101475.22;5024842;28;20033;-56
2021/10/28 04:46:11;;;;;;;17.33;12.40;;;;;;;7.19;100.00;101486.34;5024949;28;20038;-60
2021/10/28 04:48:37;;;;;;;17.27;12.05;;;;;;;6.93;100.00;101482.41;5026175;28;20025;-57
2021/10/28 04:51:02;;;;;;;16.15;12.50;;;;;;;7.36;100.00;101480.44;5027603;28;20123;-55
2021/10/28 04:53:28;;;;;;;18.77;12.77;;;;;;;7.45;100.00;101474.94;5026276;28;20041;-58
2021/10/28 04:55:54;;;;;;;15.50;12.82;;;;;;;7.04;100.00;101475.38;5027434;28;20068;-55
2021/10/28 04:58:20;;;;;;;18.55;12.18;;;;;;;7.37;100.00;101472.00;5027506;28;20451;-55
2021/10/28 05:00:46;;;;;;;16.77;12.40;;;;;;;7.05;100.00;101472.00;5024563;28;20037;-58
2021/10/28 05:03:11;;;;;;;16.20;12.52;;;;;;;7.07;100.00;101476.41;5007975;28;20378;-58
2021/10/28 05:05:37;;;;;;;16.58;12.15;;;;;;;7.72;100.00;101474.56;5007551;28;20447;-55
2021/10/28 05:08:02;;;;;;;16.25;12.63;;;;;;;7.35;100.00;101471.06;5007809;28;20046;-57
2021/10/28 05:10:30;;;;;;;14.95;11.80;;;;;;;7.79;100.00;101467.31;5007493;28;20801;-58
2021/10/28 05:12:57;;;;;;;15.93;12.75;;;;;;;7.92;100.00;101468.78;5007460;28;20072;-59
2021/10/28 05:15:23;;;;;;;16.52;13.25;;;;;;;7.68;100.00;101467.59;5007353;28;20572;-58
2021/10/28 05:17:48;;;;;;;15.82;11.95;;;;;;;7.55;100.00;101456.78;5007397;28;20034;-56
2021/10/28 05:20:15;;;;;;;15.70;12.10;;;;;;;7.57;100.00;101461.94;5007699;28;20037;-60
2021/10/28 05:22:40;;;;;;;16.95;12.68;;;;;;;7.69;100.00;101466.78;5007332;28;20042;-55
2021/10/28 05:25:06;;;;;;;17.95;12.30;;;;;;;7.85;100.00;101462.50;5006672;28;20528;-57
2021/10/28 05:27:32;;;;;;;20.88;13.35;;;;;;;7.70;100.00;101465.97;5007024;28;20041;-62
2021/10/28 05:29:58;;;;;;;15.52;12.75;;;;;;;7.22;100.00;101463.59;5007177;28;20041;-57
2021/10/28 05:32:23;;;;;;;17.02;13.02;;;;;;;7.37;100.00;101461.81;5007005;28;20402;-60
2021/10/28 05:34:49;;;;;;;18.35;13.82;;;;;;;7.55;100.00;101466.09;5006776;28;20129;-59
2021/10/28 05:37:15;;;;;;;17.73;13.18;;;;;;;7.60;100.00;101464.66;5007225;28;20041;-56
2021/10/28 05:39:41;;;;;;;21.92;13.88;;;;;;;7.73;100.00;101468.69;5006913;28;20034;-57
2021/10/28 05:42:07;;;;;;;18.38;14.23;;;;;;;7.61;100.00;101474.03;5007052;28;20037;-61
2021/10/28 05:44:32;;;;;;;20.70;13.93;;;;;;;7.56;100.00;101476.34;5006739;28;20045;-61
2021/10/28 05:46:58;;;;;;;20.60;14.73;;;;;;;7.70;100.00;101471.09;5006659;28;20494;-55
2021/10/28 05:49:27;;;;;;;21.98;14.52;;;;;;;7.70;100.00;101468.53;5020404;28;20040;-59
2021/10/28 05:51:52;;;;;;;19.15;14.23;;;;;;;7.26;100.00;101470.59;5026365;28;20032;-54
2021/10/28 05:54:18;;;;;;;22.15;15.07;;;;;;;7.51;100.00;101469.28;5026491;28;20037;-57
2021/10/28 05:56:44;;;;;;;20.75;13.95;;;;;;;7.37;100.00;101471.13;5026542;28;20043;-58
2021/10/28 05:59:09;;;;;;;22.55;14.82;;;;;;;7.32;100.00;101470.03;5026220;28;20039;-55
2021/10/28 06:01:35;;;;;;;21.35;14.65;;;;;;;7.22;100.00;101465.25;5026396;28;20037;-60
2021/10/28 06:04:00;;;;;;;20.77;14.40;;;;;;;7.08;100.00;101472.19;5025785;28;20040;-59
2021/10/28 06:06:26;;;;;;;20.83;14.13;;;;;;;7.32;100.00;101472.56;5025823;28;20116;-53
2021/10/28 06:08:51;;;;;;;21.52;14.80;;;;;;;7.10;100.00;101471.44;5025356;28;20045;-59
2021/10/28 06:11:19;;;;;;;21.27;14.13;;;;;;;7.18;100.00;101468.44;5026183;28;20418;-55
2021/10/28 06:13:47;;;;;;;22.13;15.52;;;;;;;7.28;100.00;101466.44;5025941;28;20044;-57
2021/10/28 06:16:13;;;;;;;24.85;15.15;;;;;;;7.54;100.00;101464.34;5025976;28;20564;-58
2021/10/28 06:18:41;;;;;;;20.83;14.38;;;;;;;7.53;100.00;101462.56;5026145;28;20385;-57
2021/10/28 06:21:09;;;;;;;21.88;15.23;;;;;;;7.46;100.00;101463.97;5025657;28;20047;-59
2021/10/28 06:23:36;;;;;;;22.15;15.57;;;;;;;7.20;100.00;101461.75;5023951;28;20034;-54
2021/10/28 06:26:03;;;;;;;22.48;15.63;;;;;;;7.42;100.00;101467.13;5025565;28;20116;-56
2021/10/28 06:28:28;;;;;;;24.88;16.75;;;;;;;7.54;100.00;101472.00;5025726;28;20037;-58
2021/10/28 06:30:54;;;;;;;21.67;14.80;;;;;;;7.31;100.00;101474.25;5025367;28;20037;-57
2021/10/28 06:33:25;;;;;;;21.05;14.55;;;;;;;7.40;100.00;101473.84;5025673;28;20033;-57
2021/10/28 06:35:51;;;;;;;22.33;15.15;;;;;;;7.50;100.00;101467.53;5025071;28;20121;-58
2021/10/28 06:38:17;;;;;;;26.20;16.25;;;;;;;7.44;100.00;101467.22;5025499;28;20125;-61
2021/10/28 06:40:43;;;;;;;26.38;16.75;;;;;;;7.36;100.00;101464.28;5026070;28;20084;-59
2021/10/28 06:43:10;;;;;;;24.83;17.35;;;;;;;7.49;100.00;101465.75;5025284;28;20041;-61
2021/10/28 06:45:36;;;;;;;27.65;18.23;;;;;;;7.70;100.00;101464.31;5025517;28;20082;-60
2021/10/28 06:48:03;;;;;;;26.13;16.63;;;;;;;7.47;100.00;101467.38;5021629;28;20033;-60
2021/10/28 06:50:34;;;;;;;27.10;16.98;;;;;;;7.70;100.00;101461.75;5024225;28;20341;-53
2021/10/28 06:53:11;;;;;;;30.38;19.25;;;;;;;6.97;100.00;101463.97;5020666;28;20426;-56
2021/10/28 07:03:51;;;;;;;30.17;18.67;;;;;;;6.92;100.00;101467.06;5024967;28;20052;-52
2021/10/28 07:06:22;;;;;;;33.53;21.02;;;;;;;7.35;100.00;101465.97;5025061;28;20029;-51
2021/10/28 07:09:04;;;;;;;28.70;17.98;;;;;;;7.30;100.00;101461.41;5024838;28;20037;-54
2021/10/28 07:11:34;;;;;;;30.85;18.40;;;;;;;7.75;100.00;101467.94;5025483;28;20690;-55
2021/10/28 07:14:04;;;;;;;29.30;18.05;;;;;;;7.66;100.00;101467.50;5022514;28;20700;-55
2021/10/28 07:16:40;;;;;;;27.92;18.65;;;;;;;8.07;100.00;101464.44;5024101;28;20497;-57
2021/10/28 07:27:19;;;;;;;29.00;19.17;;;;;;;7.99;100.00;101468.28;5007535;28;20520;-52
2021/10/28 07:57:53;;;;;;;20.10;15.25;;;;;;;10.90;100.00;101453.47;5024063;28;20049;-59
2021/10/28 08:13:49;;;;;;;21.52;15.68;;;;;;;9.98;100.00;101460.97;5024321;28;20573;-57
2021/10/28 08:19:17;;;;;;;22.55;15.82;;;;;;;9.99;100.00;101453.38;5024115;28;20061;-49
2021/10/28 08:21:51;;;;;;;25.75;17.23;;;;;;;9.95;100.00;101456.63;5026437;28;20440;-57
2021/10/28 08:28:38;;;;;;;20.60;15.48;;;;;;;10.07;100.00;101446.84;5027559;28;20033;-57
2021/10/28 08:29:52;;;;;;;26.30;17.05;;;;;;;10.11;100.00;101442.72;5027969;28;20501;-57
2021/10/28 08:32:17;;;;;;;25.00;16.55;;;;;;;10.12;100.00;101453.06;5027947;28;20053;-54
2021/10/28 08:34:44;;;;;;;24.25;16.02;;;;;;;10.07;100.00;101445.97;5027941;28;20446;-59
2021/10/28 08:37:14;;;;;;;24.67;16.80;;;;;;;10.12;100.00;101439.34;5027697;28;20033;-56
2021/10/28 08:39:44;;;;;;;27.52;18.20;;;;;;;10.04;100.00;101439.06;5027917;28;20103;-58
2021/10/28 08:42:12;;;;;;;29.20;17.48;;;;;;;10.42;100.00;101432.03;5027683;28;20037;-57
2021/10/28 08:44:41;;;;;;;27.15;17.92;;;;;;;10.00;100.00;101437.19;5025069;28;20091;-57
2021/10/28 08:47:09;;;;;;;25.40;17.80;;;;;;;10.55;100.00;101429.13;5028641;28;20044;-55
2021/10/28 08:49:42;;;;;;;22.75;15.93;;;;;;;10.62;100.00;101431.09;5028411;28;20064;-56
2021/10/28 09:19:36;;;;;;;15.43;12.48;;;;;;;12.46;100.00;101401.34;5026724;28;20064;-60
2021/10/28 09:25:20;;;;;;;15.45;12.63;;;;;;;13.70;98.99;101392.72;5027019;28;20060;-59
2021/10/28 09:27:55;;;;;;;20.27;12.48;;;;;;;13.44;99.74;101394.63;5026949;28;20102;-58
2021/10/28 09:30:42;;;;;;;15.63;12.03;;;;;;;13.55;96.46;101392.34;5026670;28;20036;-59
2021/10/28 09:33:19;;;;;;;16.30;11.98;;;;;;;12.72;100.00;101384.13;5026032;28;20817;-56
2021/10/28 09:36:12;;;;;;;15.93;12.23;;;;;;;12.27;100.00;101383.66;5026552;28;20033;-59
2021/10/28 09:50:50;;;;;;;15.13;11.23;;;;;;;13.29;97.77;101398.53;4993188;28;20032;-55
2021/10/28 09:53:27;;;;;;;13.45;10.80;;;;;;;13.43;97.72;101395.47;5026486;28;20034;-61
2021/10/28 09:58:38;;;;;;;12.93;9.20;;;;;;;13.28;100.00;101386.50;5026290;28;20534;-59
2021/10/28 10:01:07;;;;;;;13.82;9.60;;;;;;;13.32;99.92;101386.63;5025740;28;20045;-58
2021/10/28 10:03:37;;;;;;;12.20;10.07;;;;;;;13.78;98.73;101394.63;5024116;28;20089;-60
2021/10/28 10:06:05;;;;;;;12.20;10.23;;;;;;;13.80;95.96;101391.22;5024030;28;20088;-60
2021/10/28 10:08:33;;;;;;;14.88;9.93;;;;;;;13.88;96.43;101387.13;5024146;28;20537;-56
2021/10/28 10:10:59;;;;;;;15.02;10.32;;;;;;;14.06;95.46;101376.38;5024134;28;20408;-57
2021/10/28 10:13:29;;;;;;;14.23;10.57;;;;;;;14.23;92.92;101392.19;5023004;28;20116;-57
2021/10/28 10:16:00;;;;;;;17.33;10.70;;;;;;;15.33;88.03;101383.22;5024080;28;20033;-56
2021/10/28 10:18:28;;;;;;;12.07;9.65;;;;;;;16.97;82.26;101382.16;5025796;28;20060;-57
2021/10/28 10:21:00;;;;;;;10.50;9.40;;;;;;;19.49;69.97;101390.47;5025808;28;20037;-60
2021/10/28 10:23:47;;;;;;;12.65;9.23;;;;;;;20.58;61.47;101392.91;5025705;28;20116;-61
2021/10/28 12:28:01;;;;;;;10.35;6.05;;;;;;;20.25;48.04;101266.44;5015437;28;20061;-62
2021/10/28 12:52:40;;;;;;;8.35;6.10;;;;;;;19.85;48.98;101232.78;5015743;28;20053;-59
2021/10/28 13:55:14;;;;;;;8.00;5.50;;;;;;;21.28;49.36;101191.91;5011996;28;20565;-61
2021/10/28 15:02:15;;;;;;;14.07;9.50;;;;;;;15.58;70.18;101098.81;5025079;28;20063;-58
2021/10/28 15:29:20;;;;;;;32.15;27.35;;;;;;;14.06;83.44;101080.22;5024636;28;20099;-57
2021/10/28 15:34:41;;;;;;;21.40;13.27;;;;;;;14.13;85.13;101076.03;5030254;28;19924;-56
2021/10/28 15:53:29;;;;;;;12.07;9.93;;;;;;;13.06;92.66;101069.63;5014163;28;20196;-58
2021/10/28 16:01:27;;;;;;;13.93;10.70;;;;;;;12.74;95.63;101059.50;5004279;28;20042;-57
2021/10/28 16:22:55;;;;;;;25.42;13.93;;;;;;;12.04;100.00;101042.41;5004409;28;20521;-61
2021/10/28 16:25:22;;;;;;;22.02;12.05;;;;;;;11.89;100.00;101040.34;5003458;28;20029;-54
2021/10/28 16:27:47;;;;;;;19.40;11.35;;;;;;;11.96;100.00;101043.91;5017879;28;20049;-61
2021/10/28 16:30:14;;;;;;;18.00;11.38;;;;;;;11.94;100.00;101041.31;5024854;28;20037;-60
2021/10/28 16:32:39;;;;;;;19.75;12.05;;;;;;;11.81;100.00;101038.38;5023812;28;20033;-58
2021/10/28 16:35:06;;;;;;;14.57;9.95;;;;;;;11.85;100.00;101037.66;5022903;28;20410;-59
2021/10/28 16:37:34;;;;;;;18.60;12.65;;;;;;;11.57;100.00;101039.44;5023067;28;20145;-58
2021/10/28 16:40:00;;;;;;;16.30;10.32;;;;;;;11.68;100.00;101039.72;5022458;28;20064;-58
2021/10/28 16:42:26;;;;;;;15.18;11.20;;;;;;;11.51;100.00;101039.28;5024568;28;20049;-59
2021/10/28 16:44:52;;;;;;;19.65;12.07;;;;;;;11.15;100.00;101037.41;5027030;28;20545;-60
2021/10/28 16:47:17;;;;;;;16.08;11.70;;;;;;;11.15;100.00;101034.84;5027065;28;20037;-57
2021/10/28 16:49:43;;;;;;;18.42;12.20;;;;;;;10.81;100.00;101027.84;5027320;28;20445;-58
2021/10/28 16:52:09;;;;;;;16.45;11.60;;;;;;;10.71;100.00;101029.28;5027521;28;20486;-60
2021/10/28 16:54:35;;;;;;;16.48;11.35;;;;;;;10.71;100.00;101025.84;5024474;28;20109;-59
2021/10/28 16:57:03;;;;;;;15.18;11.50;;;;;;;10.64;100.00;101026.50;5025594;28;20123;-59
2021/10/28 16:59:28;;;;;;;18.77;11.68;;;;;;;10.67;100.00;101030.00;5025379;28;20068;-56
2021/10/28 17:01:55;;;;;;;16.48;11.30;;;;;;;10.84;100.00;101027.97;5026220;28;20041;-56
2021/10/28 17:04:21;;;;;;;16.55;12.00;;;;;;;10.68;100.00;101031.75;5026695;28;20124;-58
2021/10/28 17:06:47;;;;;;;17.48;11.93;;;;;;;10.59;100.00;101035.72;5023696;28;20450;-57
2021/10/28 17:09:13;;;;;;;23.48;14.60;;;;;;;10.74;100.00;101030.22;5016344;28;20646;-55
2021/10/28 17:11:40;;;;;;;22.30;12.63;;;;;;;10.69;100.00;101032.63;5017423;28;20144;-60
2021/10/28 17:14:08;;;;;;;14.45;11.40;;;;;;;10.50;100.00;101026.06;5032205;28;20415;-55
2021/10/28 17:16:35;;;;;;;18.40;11.82;;;;;;;10.48;100.00;101031.94;5016367;28;20034;-54
2021/10/28 17:19:02;;;;;;;15.85;11.35;;;;;;;10.44;100.00;101029.31;5017710;28;20029;-52
2021/10/28 17:21:28;;;;;;;18.77;13.68;;;;;;;10.94;100.00;101022.28;5015988;28;20115;-59
2021/10/28 17:24:03;;;;;;;17.80;13.52;;;;;;;10.58;100.00;101027.16;5016377;28;20134;-58
2021/10/28 17:26:30;;;;;;;19.23;14.07;;;;;;;10.51;100.00;101026.94;5017299;28;20461;-55
2021/10/28 17:29:01;;;;;;;18.50;15.13;;;;;;;10.51;100.00;101039.75;5015787;28;20422;-58
2021/10/28 17:31:29;;;;;;;20.40;14.35;;;;;;;10.36;100.00;101028.19;5017254;28;20115;-58
2021/10/28 17:33:56;;;;;;;16.17;13.45;;;;;;;10.52;100.00;101029.53;5006628;28;20116;-60
2021/10/28 17:36:22;;;;;;;15.00;12.35;;;;;;;10.53;100.00;101035.53;5006659;28;20037;-56
2021/10/28 17:38:48;;;;;;;15.98;13.27;;;;;;;10.43;100.00;101025.00;5006480;28;20061;-54
2021/10/28 17:41:14;;;;;;;14.93;11.40;;;;;;;10.37;100.00;101035.03;5006716;28;20490;-60
2021/10/28 17:43:43;;;;;;;15.90;11.15;;;;;;;10.37;100.00;101026.50;5006463;28;20064;-58
2021/10/28 17:46:12;;;;;;;15.48;11.55;;;;;;;10.20;100.00;101036.16;5006563;28;20128;-60
2021/10/28 17:48:37;;;;;;;16.45;11.65;;;;;;;10.41;100.00;101036.03;5004414;28;20117;-56
2021/10/28 17:51:03;;;;;;;16.67;10.95;;;;;;;10.44;100.00;101029.31;5006194;28;20133;-59
2021/10/28 17:53:29;;;;;;;14.27;10.55;;;;;;;10.34;100.00;101028.94;5003769;28;20143;-53
2021/10/28 17:55:55;;;;;;;12.10;10.70;;;;;;;10.29;100.00;101030.50;5006507;28;20045;-55
2021/10/28 17:58:20;;;;;;;13.02;10.10;;;;;;;10.44;100.00;101031.88;5006444;28;20084;-57
2021/10/28 18:00:46;;;;;;;18.08;10.80;;;;;;;10.01;100.00;101028.69;5005933;28;20038;-57
2021/10/28 18:03:12;;;;;;;13.45;10.88;;;;;;;10.03;100.00;101030.50;5005497;28;20445;-56
2021/10/28 18:05:39;;;;;;;14.20;10.85;;;;;;;10.01;100.00;101023.56;5006048;28;20379;-61
2021/10/28 18:08:07;;;;;;;13.90;10.90;;;;;;;9.79;100.00;101024.53;5005748;28;20034;-57
2021/10/28 18:10:38;;;;;;;12.85;10.80;;;;;;;9.90;100.00;101026.66;5010079;28;20417;-58
2021/10/28 18:13:04;;;;;;;17.70;11.30;;;;;;;9.73;100.00;101026.88;5024658;28;20839;-55
2021/10/28 18:15:31;;;;;;;16.05;11.02;;;;;;;9.92;100.00;101035.22;5011121;28;20112;-57
2021/10/28 18:18:02;;;;;;;17.08;11.30;;;;;;;9.78;100.00;101028.78;5005907;28;20038;-53
2021/10/28 18:20:27;;;;;;;19.15;10.95;;;;;;;9.94;100.00;101031.06;5005844;28;20034;-58
2021/10/28 18:22:54;;;;;;;17.52;10.73;;;;;;;10.15;100.00;101032.56;5006740;28;20128;-56
2021/10/28 18:25:21;;;;;;;13.82;10.13;;;;;;;9.74;100.00;101023.50;5025432;28;20037;-52
2021/10/28 18:27:47;;;;;;;15.75;10.50;;;;;;;9.72;100.00;101018.34;5025769;28;20045;-51
2021/10/28 18:30:16;;;;;;;18.00;9.88;;;;;;;9.70;100.00;101015.72;5033921;28;20495;-56
2021/10/28 18:32:42;;;;;;;11.45;9.50;;;;;;;9.69;100.00;101016.53;5029592;28;20405;-54
2021/10/28 18:35:11;;;;;;;13.88;9.73;;;;;;;9.62;100.00;101017.16;5016256;28;20034;-54
2021/10/28 18:37:37;;;;;;;12.55;9.77;;;;;;;9.45;100.00;101020.81;5014715;28;20044;-50
2021/10/28 18:40:03;;;;;;;13.52;11.40;;;;;;;9.38;100.00;101009.50;5016065;28;20034;-57
2021/10/28 18:42:29;;;;;;;14.45;11.27;;;;;;;9.31;100.00;101007.53;5014438;28;20616;-55
2021/10/28 18:44:55;;;;;;;18.20;11.05;;;;;;;9.08;100.00;101005.84;5029611;28;20072;-51
2021/10/28 18:47:20;;;;;;;13.07;10.48;;;;;;;9.03;100.00;100992.91;5015790;28;20033;-52
2021/10/28 18:49:49;;;;;;;13.90;10.65;;;;;;;9.27;100.00;100994.59;5014420;28;20065;-59
2021/10/28 18:52:17;;;;;;;15.60;11.48;;;;;;;8.90;100.00;100993.25;5014491;28;20118;-55
2021/10/28 18:54:45;;;;;;;16.08;11.07;;;;;;;8.79;100.00;100980.09;5015612;28;20084;-54
2021/10/28 18:57:12;;;;;;;16.42;10.55;;;;;;;8.77;100.00;100980.84;5013206;28;20569;-52
2021/10/28 18:59:37;;;;;;;12.88;10.60;;;;;;;8.75;100.00;100982.47;5014929;28;20355;-55
2021/10/28 19:02:03;;;;;;;15.35;9.88;;;;;;;9.14;100.00;100978.81;5013643;28;20041;-59
2021/10/28 19:04:29;;;;;;;17.02;9.63;;;;;;;9.35;100.00;100983.84;5014443;28;20128;-60
2021/10/28 19:06:55;;;;;;;15.65;10.50;;;;;;;9.16;100.00;100976.34;5014789;28;20036;-58
2021/10/28 19:09:20;;;;;;;13.45;10.43;;;;;;;8.77;100.00;100975.72;5013770;28;20056;-61
2021/10/28 19:11:46;;;;;;;13.30;10.80;;;;;;;8.71;100.00;100970.41;5015550;28;20061;-58
2021/10/28 19:14:13;;;;;;;15.07;9.88;;;;;;;8.77;100.00;100968.06;5015178;28;20144;-60
2021/10/28 19:16:38;;;;;;;13.30;9.40;;;;;;;8.80;100.00;100969.06;5016386;28;20033;-58
2021/10/28 19:19:06;;;;;;;11.50;9.05;;;;;;;8.88;100.00;100962.56;5015839;28;20708;-50
2021/10/28 19:21:32;;;;;;;14.23;10.00;;;;;;;8.67;100.00;100970.28;5021271;28;20072;-52
2021/10/28 19:23:59;;;;;;;12.90;10.10;;;;;;;8.67;100.00;100962.63;5014178;28;20053;-50
2021/10/28 19:26:25;;;;;;;13.05;9.35;;;;;;;8.58;100.00;100964.81;5015145;28;20469;-52
2021/10/28 19:28:51;;;;;;;13.50;9.80;;;;;;;8.46;100.00;100968.59;5012951;28;20110;-57
2021/10/28 19:31:23;;;;;;;13.15;9.93;;;;;;;8.35;100.00;100963.03;5014576;28;20025;-53
2021/10/28 19:33:53;;;;;;;10.98;9.43;;;;;;;8.75;100.00;100959.50;5014449;28;20646;-55
2021/10/28 19:36:36;;;;;;;13.25;9.90;;;;;;;8.73;100.00;100956.88;5015645;28;20515;-55
2021/10/28 19:41:58;;;;;;;10.73;8.18;;;;;;;8.74;100.00;100955.22;5014252;28;20113;-58
2021/10/28 19:47:17;;;;;;;12.70;8.70;;;;;;;8.37;100.00;100953.81;5015696;28;20092;-54
2021/10/28 19:49:49;;;;;;;11.98;8.57;;;;;;;8.26;100.00;100952.47;5010995;28;20037;-54
2021/10/28 19:52:24;;;;;;;11.25;8.13;;;;;;;8.58;100.00;100951.19;5015246;28;20512;-55
2021/10/28 19:54:50;;;;;;;11.48;8.80;;;;;;;8.24;100.00;100943.91;5012722;28;20041;-55